KTPH

Tonopah Airport

Tonopah, Nevada, USA
METAR KTPH 241456Z AUTO 02013KT 10SM CLR 21/M03 A3015 RMK AO2 SLP121 T02111033 51016
Observed Flight Rules
Jun-24 @ 14:56 UTC (10 minutes ago) Visual Flight Rules
Wind Visibility Clouds
20° at 13 knots 10 miles
  • Clear skies
Temperatures Readings
Current 21°C / 70°F
Dewpoint -3°C / 27°F
Humidity 20%
Altimeter 30.15" Hg
Pressure 1012.1 hPa
Elevation 1652
METAR KTPH 241456Z AUTO 02013KT 10SM CLR 21/M03 A3015 RMK AO2 SLP121 T02111033 51016
Observed Flight Rules
Jun-24 @ 14:56 UTC
(10 minutes ago)
VFR
Wind Visibility
20° at 13 knots 10 miles
Clouds
  • Clear skies
Temperature Dewpoint
21°C / 70°F -3°C / 27°F
Humidity Altimeter Pressure
20% 30.15" Hg 1012.1 hPa